.
WxDataArchive / Data Records for 2010-10-20
2010-10-19 October 2010 2010-10-21

Data Records for Wednesday, 20 October 2010

Time	Temp	Chill	HIndex	Humid	Dewpt	 Wind 	HiWind	WindDir	Rain 	Barom 
-----	----	-----	------	-----	-----	------	------	-------	-----	----- 
00:00	38.5	38.5	38.5	83	33.8	0	0	---	0.00	29.949 
00:05	38.5	38.5	38.5	84	34.1	0	0	---	0.00	29.949 
00:10	38.5	38.5	38.5	84	34.1	0	0	---	0.00	29.949 
00:15	38.5	38.5	38.5	84	34.1	0	0	---	0.00	29.947 
00:20	38.6	38.6	38.6	84	34.2	0	0	---	0.00	29.947 
00:25	38.6	38.6	38.6	84	34.2	0	0	---	0.00	29.947 
00:30	38.8	38.8	38.8	84	34.4	0	0	---	0.00	29.947 
00:35	38.8	38.8	38.8	84	34.4	0	0	---	0.00	29.947 
00:40	38.9	38.9	38.9	84	34.5	0	0	---	0.00	29.947 
00:45	38.9	38.9	38.9	84	34.5	0	0	---	0.00	29.946 
00:50	39.1	39.1	39.1	84	34.7	0	0	---	0.00	29.946 
00:55	39.1	39.1	39.1	84	34.7	0	0	---	0.00	29.946 
01:00	39.1	39.1	39.1	84	34.7	0	0	---	0.00	29.941 
01:05	39.2	39.2	39.2	84	34.8	0	0	---	0.00	29.941 
01:10	39.2	39.2	39.2	84	34.8	0	0	---	0.00	29.941 
01:15	39.2	39.2	39.2	84	34.8	0	0	---	0.00	29.936 
01:20	39.3	39.3	39.3	84	34.9	0	0	---	0.00	29.936 
01:25	39.3	39.3	39.3	84	34.9	0	0	---	0.00	29.936 
01:30	39.5	39.5	39.5	84	35.1	0	0	---	0.00	29.929 
01:35	39.5	39.5	39.5	84	35.1	0	0	---	0.00	29.929 
01:40	39.5	39.5	39.5	84	35.1	0	0	---	0.00	29.929 
01:45	39.5	39.5	39.5	84	35.1	0	0	---	0.00	29.927 
01:50	39.5	39.5	39.5	84	35.1	0	0	---	0.00	29.927 
01:55	39.5	39.5	39.5	84	35.1	0	0	---	0.00	29.927 
02:00	39.5	39.5	39.5	84	35.1	0	0	---	0.00	29.928 
02:05	39.5	39.5	39.5	84	35.1	0	0	---	0.00	29.928 
02:10	39.5	39.5	39.5	84	35.1	0	0	---	0.00	29.928 
02:15	39.5	39.5	39.5	84	35.1	0	0	---	0.00	29.925 
02:20	39.5	39.5	39.5	85	35.4	0	0	---	0.00	29.925 
02:25	39.5	39.5	39.5	85	35.4	0	0	---	0.00	29.925 
02:30	39.3	39.3	39.3	85	35.2	0	0	---	0.00	29.920 
02:35	39.3	39.3	39.3	85	35.2	0	0	---	0.00	29.920 
02:40	39.3	39.3	39.3	85	35.2	0	0	---	0.00	29.920 
02:45	39.2	39.2	39.2	85	35.1	0	0	---	0.00	29.917 
02:50	39.1	39.1	39.1	85	35.0	0	0	---	0.00	29.917 
02:55	39.1	39.1	39.1	85	35.0	0	0	---	0.00	29.917 
03:00	38.9	38.9	38.9	85	34.8	0	0	---	0.00	29.915 
03:05	38.8	38.8	38.8	85	34.7	0	0	---	0.00	29.915 
03:10	38.8	38.8	38.8	85	34.7	0	0	---	0.00	29.915 
03:15	38.6	38.6	38.6	86	34.8	0	0	---	0.00	29.911 
03:20	38.5	38.5	38.5	86	34.7	0	0	---	0.00	29.911 
03:25	38.3	38.3	38.3	86	34.5	0	0	---	0.00	29.911 
03:30	38.2	38.2	38.2	86	34.4	0	0	---	0.00	29.913 
03:35	38.0	38.0	38.0	87	34.5	0	0	---	0.00	29.913 
03:40	37.9	37.9	37.9	87	34.4	0	0	---	0.00	29.913 
03:45	37.8	37.8	37.8	87	34.3	0	0	---	0.00	29.913 
03:50	37.5	37.5	37.5	87	34.0	0	0	---	0.00	29.913 
03:55	37.3	37.3	37.3	87	33.8	0	0	---	0.00	29.913 
04:00	37.2	37.2	37.2	88	34.0	0	0	---	0.00	29.907 
04:05	37.0	37.0	37.0	88	33.8	0	0	---	0.00	29.907 
04:10	37.0	37.0	37.0	88	33.8	0	0	---	0.00	29.907 
04:15	36.9	36.9	36.9	88	33.7	0	0	---	0.00	29.900 
04:20	36.8	36.8	36.8	88	33.6	0	0	---	0.00	29.900 
04:25	36.6	36.6	36.6	88	33.4	0	0	---	0.00	29.900 
04:30	36.6	36.6	36.6	88	33.4	0	0	---	0.00	29.897 
04:35	36.5	36.5	36.5	89	33.6	0	0	---	0.00	29.897 
04:40	36.5	36.5	36.5	89	33.6	0	0	---	0.00	29.897 
04:45	36.5	36.5	36.5	89	33.6	0	0	---	0.00	29.893 
04:50	36.3	36.3	36.3	89	33.4	0	0	---	0.00	29.893 
04:55	36.3	36.3	36.3	89	33.4	0	0	---	0.00	29.893 
05:00	36.2	36.2	36.2	89	33.3	0	0	---	0.00	29.887 
05:05	36.0	36.0	36.0	89	33.1	0	0	---	0.00	29.887 
05:10	36.0	36.0	36.0	89	33.1	0	0	---	0.00	29.887 
05:15	35.9	35.9	35.9	89	33.0	0	0	---	0.00	29.887 
05:20	35.9	35.9	35.9	89	33.0	0	0	---	0.00	29.887 
05:25	35.8	35.8	35.8	89	32.9	0	0	---	0.00	29.887 
05:30	35.8	35.8	35.8	90	33.2	0	0	---	0.00	29.888 
05:35	35.8	35.8	35.8	90	33.2	0	0	---	0.00	29.888 
05:40	35.9	35.9	35.9	90	33.3	0	0	---	0.00	29.888 
05:45	36.2	36.2	36.2	91	33.8	0	0	---	0.00	29.888 
05:50	36.6	36.6	36.6	91	34.2	0	0	---	0.00	29.888 
05:55	36.9	36.9	36.9	91	34.5	0	1	248	0.00	29.888 
06:00	37.2	37.2	37.2	91	34.8	0	0	---	0.00	29.888 
06:05	37.5	37.5	37.5	90	34.8	0	0	---	0.00	29.888 
06:10	37.8	37.8	37.8	90	35.1	0	1	248	0.00	29.888 
06:15	38.0	38.0	38.0	89	35.1	0	1	248	0.00	29.887 
06:20	38.3	38.3	38.3	88	35.1	0	0	---	0.00	29.887 
06:25	38.5	38.5	38.5	86	34.7	0	0	---	0.00	29.887 
06:30	38.8	38.8	38.8	86	35.0	0	1	248	0.00	29.885 
06:35	38.9	38.9	38.9	84	34.5	0	1	248	0.00	29.885 
06:40	39.2	39.2	39.2	83	34.5	0	1	248	0.00	29.885 
06:45	39.5	39.5	39.5	82	34.5	0	1	248	0.00	29.884 
06:50	39.6	39.6	39.6	81	34.3	0	2	248	0.00	29.884 
06:55	39.8	39.8	39.8	80	34.1	0	1	248	0.00	29.884 
07:00	40.1	40.1	40.1	79	34.1	0	1	248	0.00	29.881 
07:05	40.1	40.1	40.1	79	34.1	0	1	248	0.00	29.881 
07:10	40.1	40.1	40.1	78	33.8	0	1	248	0.00	29.881 
07:15	40.1	40.1	40.1	77	33.5	0	1	248	0.00	29.884 
07:20	40.1	40.1	40.1	77	33.5	0	1	248	0.00	29.884 
07:25	40.2	40.2	40.2	77	33.6	0	1	248	0.00	29.884 
07:30	40.2	40.2	40.2	77	33.6	0	2	248	0.00	29.882 
07:35	40.3	40.3	40.3	77	33.7	0	1	248	0.00	29.882 
07:40	40.6	40.6	40.6	76	33.6	0	2	248	0.00	29.882 
07:45	40.6	40.6	40.6	75	33.3	0	2	248	0.00	29.875 
07:50	40.8	40.8	40.8	75	33.5	0	2	248	0.00	29.875 
07:55	40.9	40.9	40.9	74	33.3	0	2	248	0.00	29.875 
08:00	40.9	40.9	40.9	74	33.3	0	2	248	0.00	29.873 
08:05	40.9	40.9	40.9	74	33.3	0	2	248	0.00	29.873 
08:10	41.1	41.1	41.1	74	33.5	0	3	248	0.00	29.873 
08:15	41.1	41.1	41.1	74	33.5	0	1	248	0.00	29.877 
08:20	41.1	41.1	41.1	73	33.1	0	1	248	0.00	29.877 
08:25	41.1	41.1	41.1	73	33.1	0	2	248	0.00	29.877 
08:30	41.2	41.2	41.2	73	33.2	0	2	248	0.00	29.876 
08:35	41.5	41.5	41.5	73	33.5	0	3	248	0.00	29.876 
08:40	41.6	41.6	41.6	72	33.3	0	4	248	0.00	29.876 
08:45	42.1	42.1	42.1	71	33.4	1	3	248	0.00	29.876 
08:50	42.3	42.3	42.3	71	33.6	1	5	248	0.00	29.876 
08:55	42.8	42.8	42.8	70	33.7	0	3	270	0.00	29.876 
09:00	43.2	43.2	43.2	69	33.7	1	3	292	0.00	29.876 
09:05	43.5	43.5	43.5	68	33.7	0	4	248	0.00	29.876 
09:10	43.9	43.9	43.9	68	34.0	0	4	225	0.00	29.876 
09:15	44.3	44.3	44.3	67	34.0	1	3	225	0.00	29.878 
09:20	44.9	44.9	44.9	65	33.9	0	3	248	0.00	29.878 
09:25	45.5	45.5	45.5	65	34.4	1	6	248	0.00	29.878 
09:30	46.1	46.1	46.1	62	33.8	1	4	248	0.00	29.875 
09:35	46.7	46.7	46.7	62	34.4	1	4	248	0.00	29.875 
09:40	47.3	47.3	47.3	61	34.5	1	4	248	0.00	29.875 
09:45	47.7	47.7	47.7	60	34.5	1	4	248	0.00	29.875 
09:50	48.3	48.3	48.3	58	34.2	1	5	248	0.00	29.875 
09:55	48.9	48.9	48.9	58	34.8	1	4	248	0.00	29.875 
10:00	49.5	49.5	49.5	56	34.5	2	6	248	0.00	29.870 
10:05	50.1	50.1	50.1	55	34.6	2	4	248	0.00	29.870 
10:10	50.7	50.7	50.7	54	34.7	2	6	225	0.00	29.870 
10:15	51.3	51.3	51.3	53	34.8	2	4	248	0.00	29.866 
10:20	51.9	51.9	51.9	51	34.3	2	7	248	0.00	29.866 
10:25	52.5	52.5	52.5	51	34.9	2	4	248	0.00	29.866 
10:30	52.9	52.9	52.9	50	34.8	3	9	248	0.00	29.858 
10:35	53.5	53.5	53.5	50	35.3	1	4	248	0.00	29.858 
10:40	54.1	54.1	54.1	49	35.4	1	3	248	0.00	29.858 
10:45	54.7	54.7	54.7	48	35.4	1	4	248	0.00	29.854 
10:50	55.0	55.0	55.0	47	35.1	2	6	270	0.00	29.854 
10:55	55.1	55.1	55.1	46	34.7	3	8	270	0.00	29.854 
11:00	55.3	55.3	55.3	46	34.9	3	7	248	0.00	29.853 
11:05	55.7	55.7	55.7	46	35.2	2	6	248	0.00	29.853 
11:10	56.2	56.2	56.2	45	35.1	3	6	248	0.00	29.853 
11:15	56.6	56.6	56.6	44	34.9	3	10	248	0.00	29.843 
11:20	57.0	57.0	57.0	44	35.3	2	6	270	0.00	29.843 
11:25	57.5	57.5	57.5	43	35.2	4	8	248	0.00	29.843 
11:30	58.0	58.0	58.0	42	35.0	3	7	248	0.00	29.839 
11:35	58.1	58.1	58.1	42	35.1	4	10	248	0.00	29.839 
11:40	58.4	58.4	58.4	42	35.4	2	7	248	0.00	29.839 
11:45	58.9	58.9	58.9	40	34.6	3	7	270	0.00	29.836 
11:50	59.2	59.2	59.2	39	34.3	4	10	248	0.00	29.836 
11:55	59.5	59.5	59.5	39	34.5	3	8	248	0.00	29.836 
12:00	59.9	59.9	59.9	38	34.2	3	7	248	0.00	29.829 
12:05	60.4	60.4	60.4	38	34.7	4	9	248	0.00	29.829 
12:10	60.9	60.9	60.9	39	35.8	2	5	248	0.00	29.829 
12:15	61.5	61.5	61.5	37	35.0	2	7	248	0.00	29.825 
12:20	61.5	61.5	61.5	36	34.3	4	11	248	0.00	29.825 
12:25	61.6	61.6	61.6	36	34.4	4	11	248	0.00	29.825 
12:30	61.5	61.5	61.5	35	33.6	5	10	270	0.00	29.818 
12:35	61.8	61.8	61.8	35	33.9	4	9	270	0.00	29.818 
12:40	62.0	62.0	62.0	35	34.0	4	9	248	0.00	29.818 
12:45	62.4	62.4	62.4	35	34.4	3	7	270	0.00	29.816 
12:50	62.6	62.6	62.6	34	33.8	5	10	248	0.00	29.816 
12:55	62.9	62.9	62.9	34	34.1	4	14	248	0.00	29.816 
13:00	63.4	63.4	63.4	33	33.8	4	10	270	0.00	29.810 
13:05	63.7	63.7	63.7	33	34.1	3	9	270	0.00	29.810 
13:10	63.7	63.7	63.7	32	33.3	5	12	248	0.00	29.810 
13:15	63.7	63.7	63.7	31	32.5	5	10	270	0.00	29.801 
13:20	64.2	64.2	64.2	32	33.7	4	12	270	0.00	29.801 
13:25	63.9	63.9	63.9	30	31.9	5	11	270	0.00	29.801 
13:30	63.5	63.5	63.5	31	32.3	5	12	248	0.00	29.789 
13:35	63.9	63.9	63.9	32	33.5	3	10	248	0.00	29.789 
13:40	64.2	64.2	64.2	32	33.7	3	10	248	0.00	29.789 
13:45	64.3	64.3	64.3	30	32.2	5	10	270	0.00	29.783 
13:50	64.7	64.7	64.7	30	32.5	4	13	248	0.00	29.783 
13:55	65.0	65.0	65.0	30	32.8	4	9	248	0.00	29.783 
14:00	65.0	65.0	65.0	29	32.0	4	10	248	0.00	29.774 
14:05	65.3	65.3	65.3	28	31.4	3	9	248	0.00	29.774 
14:10	65.6	65.6	65.6	28	31.6	4	7	248	0.00	29.774 
14:15	65.8	65.8	65.8	28	31.8	4	11	270	0.00	29.767 
14:20	65.5	65.5	65.5	28	31.5	3	10	248	0.00	29.767 
14:25	66.0	66.0	66.0	28	32.0	3	9	270	0.00	29.767 
14:30	66.1	66.1	66.1	29	32.9	4	11	248	0.00	29.753 
14:35	66.4	66.4	66.4	28	32.3	4	10	248	0.00	29.753 
14:40	66.4	66.4	66.4	28	32.3	5	11	248	0.00	29.753 
14:45	66.9	66.9	66.9	28	32.7	3	11	248	0.00	29.741 
14:50	67.3	67.3	67.3	27	32.2	4	14	248	0.00	29.741 
14:55	66.9	66.9	66.9	28	32.7	5	9	270	0.00	29.741 
15:00	67.1	67.1	67.1	27	32.0	5	11	270	0.00	29.733 
15:05	67.1	67.1	67.1	28	32.9	5	11	270	0.00	29.733 
15:10	67.3	67.3	67.3	27	32.2	4	11	248	0.00	29.733 
15:15	67.3	67.3	67.3	27	32.2	5	10	270	0.00	29.729 
15:20	67.3	67.3	67.3	27	32.2	4	12	248	0.00	29.729 
15:25	67.3	67.3	67.3	27	32.2	5	14	270	0.00	29.729 
15:30	67.4	67.4	67.4	27	32.3	4	11	270	0.00	29.722 
15:35	67.4	67.4	67.4	27	32.3	5	14	270	0.00	29.722 
15:40	67.3	67.3	67.3	27	32.2	7	14	270	0.00	29.722 
15:45	67.6	67.6	67.6	27	32.4	4	10	248	0.00	29.717 
15:50	68.4	68.4	68.4	27	33.1	3	10	270	0.00	29.717 
15:55	68.9	68.9	68.9	27	33.5	4	13	248	0.00	29.717 
16:00	68.8	68.8	68.8	27	33.5	4	11	270	0.00	29.712 
16:05	68.6	68.6	68.6	27	33.3	5	15	270	0.00	29.712 
16:10	67.9	67.9	67.9	28	33.6	6	14	270	0.00	29.712 
16:15	67.8	67.8	67.8	27	32.6	5	12	248	0.00	29.714 
16:20	67.9	67.9	67.9	27	32.7	4	12	248	0.00	29.714 
16:25	67.9	67.9	67.9	28	33.6	3	7	248	0.00	29.714 
16:30	67.9	67.9	67.9	27	32.7	4	10	270	0.00	29.708 
16:35	67.8	67.8	67.8	27	32.6	5	9	270	0.00	29.708 
16:40	67.8	67.8	67.8	28	33.5	4	10	248	0.00	29.708 
16:45	67.8	67.8	67.8	28	33.5	3	11	248	0.00	29.702 
16:50	67.9	67.9	67.9	28	33.6	4	11	248	0.00	29.702 
16:55	68.1	68.1	68.1	27	32.9	3	7	248	0.00	29.702 
17:00	67.9	67.9	67.9	27	32.7	5	11	248	0.00	29.690 
17:05	67.8	67.8	67.8	28	33.5	5	10	248	0.00	29.690 
17:10	67.8	67.8	67.8	28	33.5	3	10	270	0.00	29.690 
17:15	67.9	67.9	67.9	28	33.6	3	6	270	0.00	29.691 
17:20	67.9	67.9	67.9	28	33.6	3	7	248	0.00	29.691 
17:25	68.1	68.1	68.1	28	33.8	1	5	248	0.00	29.691 
17:30	67.9	67.9	67.9	29	34.5	4	8	270	0.00	29.688 
17:35	67.9	67.9	67.9	30	35.3	3	10	248	0.00	29.688 
17:40	67.8	67.8	67.8	30	35.2	3	14	248	0.00	29.688 
17:45	67.8	67.8	67.8	30	35.2	2	10	292	0.00	29.687 
17:50	67.8	67.8	67.8	30	35.2	3	10	248	0.00	29.687 
17:55	67.6	67.6	67.6	30	35.1	3	10	248	0.00	29.687 
18:00	67.3	67.3	67.3	30	34.8	3	7	248	0.00	29.686 
18:05	67.1	67.1	67.1	30	34.6	4	9	248	0.00	29.686 
18:10	66.9	66.9	66.9	30	34.5	4	7	270	0.00	29.686 
18:15	66.8	66.8	66.8	31	35.2	2	5	248	0.00	29.684 
18:20	66.6	66.6	66.6	31	35.0	2	6	248	0.00	29.684 
18:25	66.4	66.4	66.4	31	34.8	3	7	248	0.00	29.684 
18:30	66.3	66.3	66.3	32	35.6	2	7	248	0.00	29.682 
18:35	66.0	66.0	66.0	31	34.5	3	10	248	0.00	29.682 
18:40	65.8	65.8	65.8	31	34.3	3	7	248	0.00	29.682 
18:45	65.6	65.6	65.6	31	34.1	2	6	248	0.00	29.681 
18:50	65.3	65.3	65.3	31	33.9	2	6	248	0.00	29.681 
18:55	65.2	65.2	65.2	31	33.8	2	6	248	0.00	29.681 
19:00	64.8	64.8	64.8	32	34.2	2	6	270	0.00	29.681 
19:05	64.7	64.7	64.7	32	34.2	3	9	248	0.00	29.681 
19:10	64.5	64.5	64.5	32	34.0	3	8	248	0.00	29.681 
19:15	64.3	64.3	64.3	32	33.8	2	5	248	0.00	29.680 
19:20	64.2	64.2	64.2	33	34.5	2	6	248	0.00	29.680 
19:25	63.9	63.9	63.9	33	34.2	2	4	270	0.00	29.680 
19:30	63.9	63.9	63.9	33	34.2	2	5	248	0.00	29.682 
19:35	63.7	63.7	63.7	32	33.3	2	5	248	0.00	29.682 
19:40	63.5	63.5	63.5	33	33.9	1	4	248	0.00	29.682 
19:45	63.4	63.4	63.4	33	33.8	2	5	248	0.00	29.686 
19:50	63.2	63.2	63.2	34	34.4	2	5	248	0.00	29.686 
19:55	62.9	62.9	62.9	34	34.1	1	4	225	0.00	29.686 
20:00	62.7	62.7	62.7	35	34.7	0	2	248	0.00	29.683 
20:05	62.4	62.4	62.4	35	34.4	1	4	248	0.00	29.683 
20:10	62.4	62.4	62.4	34	33.7	2	6	248	0.00	29.683 
20:15	62.6	62.6	62.6	33	33.1	2	5	248	0.00	29.680 
20:20	62.6	62.6	62.6	33	33.1	2	5	248	0.00	29.680 
20:25	62.6	62.6	62.6	33	33.1	3	7	248	0.00	29.680 
20:30	62.6	62.6	62.6	33	33.1	1	7	248	0.00	29.670 
20:35	62.4	62.4	62.4	33	32.9	2	6	248	0.00	29.670 
20:40	62.4	62.4	62.4	34	33.7	1	4	248	0.00	29.670 
20:45	62.4	62.4	62.4	33	32.9	3	8	248	0.00	29.670 
20:50	62.4	62.4	62.4	33	32.9	3	11	248	0.00	29.670 
20:55	62.4	62.4	62.4	33	32.9	3	9	248	0.00	29.670 
21:00	62.4	62.4	62.4	33	32.9	2	6	248	0.00	29.664 
21:05	62.3	62.3	62.3	33	32.8	3	6	248	0.00	29.664 
21:10	62.3	62.3	62.3	33	32.8	3	10	248	0.00	29.664 
21:15	62.3	62.3	62.3	33	32.8	2	6	248	0.00	29.651 
21:20	62.1	62.1	62.1	33	32.7	1	5	248	0.00	29.651 
21:25	62.1	62.1	62.1	33	32.7	3	9	248	0.00	29.651 
21:30	62.3	62.3	62.3	33	32.8	3	10	248	0.00	29.647 
21:35	62.6	62.6	62.6	32	32.3	3	9	270	0.00	29.647 
21:40	62.6	62.6	62.6	32	32.3	3	9	248	0.00	29.647 
21:45	62.7	62.7	62.7	32	32.4	3	6	248	0.00	29.648 
21:50	62.7	62.7	62.7	32	32.4	4	9	248	0.00	29.648 
21:55	62.7	62.7	62.7	32	32.4	3	6	248	0.00	29.648 
22:00	62.6	62.6	62.6	32	32.3	4	14	270	0.00	29.648 
22:05	62.6	62.6	62.6	33	33.1	4	9	248	0.00	29.648 
22:10	62.4	62.4	62.4	33	32.9	4	12	248	0.00	29.648 
22:15	62.4	62.4	62.4	33	32.9	4	13	248	0.00	29.640 
22:20	62.4	62.4	62.4	33	32.9	4	13	248	0.00	29.640 
22:25	62.4	62.4	62.4	33	32.9	5	14	270	0.00	29.640 
22:30	62.3	62.3	62.3	33	32.8	3	7	248	0.00	29.634 
22:35	62.3	62.3	62.3	33	32.8	4	9	270	0.00	29.634 
22:40	62.3	62.3	62.3	33	32.8	4	10	270	0.00	29.634 
22:45	62.1	62.1	62.1	33	32.7	5	10	270	0.00	29.632 
22:50	62.1	62.1	62.1	33	32.7	4	7	248	0.00	29.632 
22:55	62.0	62.0	62.0	33	32.6	5	13	270	0.00	29.632 
23:00	62.0	62.0	62.0	34	33.3	4	11	270	0.00	29.631 
23:05	61.8	61.8	61.8	34	33.1	5	13	248	0.00	29.631 
23:10	61.8	61.8	61.8	34	33.1	4	9	248	0.00	29.631 
23:15	61.8	61.8	61.8	34	33.1	4	18	248	0.00	29.621 
23:20	61.8	61.8	61.8	34	33.1	5	11	270	0.00	29.621 
23:25	61.6	61.6	61.6	34	33.0	4	10	270	0.00	29.621 
23:30	61.5	61.5	61.5	35	33.6	3	7	270	0.00	29.617 
23:35	61.3	61.3	61.3	35	33.4	4	9	248	0.00	29.617 
23:40	61.2	61.2	61.2	35	33.3	5	11	270	0.00	29.617 
23:45	61.2	61.2	61.2	35	33.3	4	10	248	0.00	29.612 
23:50	61.0	61.0	61.0	35	33.2	5	11	248	0.00	29.612 
23:55	61.0	61.0	61.0	35	33.2	5	16	248	0.00	29.612 

CoCoRaHS
IN-AL-39
A2 Web Hosting
Creative Commons License
GoDaddy
search engine by freefind advanced

loaded 2018-11-16 23:16:05 • last modified 2010-11-18 10:43:29
Privacy PolicyDisclaimer
• wx.awcolley.com is powered by PmWiki v.2002016 •
• all content (unless otherwise noted) © 2018 A W Colley